sensor_id;sensor_type;location;lat;lon;timestamp;temperature;humidity
57829;DHT22;43657;52.698;6.314;2024-01-07T00:00:48;0.30;99.90
57829;DHT22;43657;52.698;6.314;2024-01-07T00:03:14;0.30;99.90
57829;DHT22;43657;52.698;6.314;2024-01-07T00:05:42;0.30;99.90
57829;DHT22;43657;52.698;6.314;2024-01-07T00:08:12;0.30;99.90
57829;DHT22;43657;52.698;6.314;2024-01-07T00:10:42;0.40;99.90
57829;DHT22;43657;52.698;6.314;2024-01-07T00:13:09;0.30;99.90
57829;DHT22;43657;52.698;6.314;2024-01-07T00:15:42;0.40;99.90
57829;DHT22;43657;52.698;6.314;2024-01-07T00:18:11;0.30;99.90
57829;DHT22;43657;52.698;6.314;2024-01-07T00:20:38;0.30;99.90
57829;DHT22;43657;52.698;6.314;2024-01-07T00:23:07;0.30;99.90
57829;DHT22;43657;52.698;6.314;2024-01-07T00:25:34;0.30;99.90
57829;DHT22;43657;52.698;6.314;2024-01-07T00:28:06;0.30;99.90
57829;DHT22;43657;52.698;6.314;2024-01-07T00:30:34;0.30;99.90
57829;DHT22;43657;52.698;6.314;2024-01-07T00:33:03;0.40;99.90
57829;DHT22;43657;52.698;6.314;2024-01-07T00:35:30;0.30;99.90
57829;DHT22;43657;52.698;6.314;2024-01-07T00:37:59;0.30;99.90
57829;DHT22;43657;52.698;6.314;2024-01-07T00:40:29;0.30;99.90
57829;DHT22;43657;52.698;6.314;2024-01-07T00:42:59;0.30;99.90
57829;DHT22;43657;52.698;6.314;2024-01-07T00:45:25;0.30;99.90
57829;DHT22;43657;52.698;6.314;2024-01-07T00:47:51;0.30;99.90
57829;DHT22;43657;52.698;6.314;2024-01-07T00:50:20;0.30;99.90
57829;DHT22;43657;52.698;6.314;2024-01-07T00:52:48;0.40;99.90
57829;DHT22;43657;52.698;6.314;2024-01-07T00:55:16;0.20;99.90
57829;DHT22;43657;52.698;6.314;2024-01-07T00:57:45;0.20;99.90
57829;DHT22;43657;52.698;6.314;2024-01-07T01:00:15;0.30;99.90
57829;DHT22;43657;52.698;6.314;2024-01-07T01:02:46;0.30;99.90
57829;DHT22;43657;52.698;6.314;2024-01-07T01:05:13;0.40;99.90
57829;DHT22;43657;52.698;6.314;2024-01-07T01:07:41;0.20;99.90
57829;DHT22;43657;52.698;6.314;2024-01-07T01:10:08;0.30;99.90
57829;DHT22;43657;52.698;6.314;2024-01-07T01:12:34;0.20;99.90
57829;DHT22;43657;52.698;6.314;2024-01-07T01:15:03;0.30;99.90
57829;DHT22;43657;52.698;6.314;2024-01-07T01:17:45;0.30;99.90
57829;DHT22;43657;52.698;6.314;2024-01-07T01:20:12;0.30;99.90
57829;DHT22;43657;52.698;6.314;2024-01-07T01:22:42;0.30;99.90
57829;DHT22;43657;52.698;6.314;2024-01-07T01:25:08;0.30;99.90
57829;DHT22;43657;52.698;6.314;2024-01-07T01:27:41;0.20;99.90
57829;DHT22;43657;52.698;6.314;2024-01-07T01:30:08;0.30;99.90
57829;DHT22;43657;52.698;6.314;2024-01-07T01:32:35;0.30;99.90
57829;DHT22;43657;52.698;6.314;2024-01-07T01:35:02;0.30;99.90
57829;DHT22;43657;52.698;6.314;2024-01-07T01:37:29;0.20;99.90
57829;DHT22;43657;52.698;6.314;2024-01-07T01:39:58;0.30;99.90
57829;DHT22;43657;52.698;6.314;2024-01-07T01:42:29;0.30;99.90
57829;DHT22;43657;52.698;6.314;2024-01-07T01:45:00;0.30;99.90
57829;DHT22;43657;52.698;6.314;2024-01-07T01:47:42;0.30;99.90
57829;DHT22;43657;52.698;6.314;2024-01-07T01:50:11;0.20;99.90
57829;DHT22;43657;52.698;6.314;2024-01-07T01:52:38;0.30;99.90
57829;DHT22;43657;52.698;6.314;2024-01-07T01:55:07;0.30;99.90
57829;DHT22;43657;52.698;6.314;2024-01-07T01:57:34;0.30;99.90
57829;DHT22;43657;52.698;6.314;2024-01-07T02:00:04;0.20;99.90
57829;DHT22;43657;52.698;6.314;2024-01-07T02:02:34;0.30;99.90
57829;DHT22;43657;52.698;6.314;2024-01-07T02:05:06;0.30;99.90
57829;DHT22;43657;52.698;6.314;2024-01-07T02:07:49;0.30;99.90
57829;DHT22;43657;52.698;6.314;2024-01-07T02:10:18;0.30;99.90
57829;DHT22;43657;52.698;6.314;2024-01-07T02:12:47;0.20;99.90
57829;DHT22;43657;52.698;6.314;2024-01-07T02:15:29;0.20;99.90
57829;DHT22;43657;52.698;6.314;2024-01-07T02:17:58;0.30;99.90
57829;DHT22;43657;52.698;6.314;2024-01-07T02:20:27;0.30;99.90
57829;DHT22;43657;52.698;6.314;2024-01-07T02:22:56;0.30;99.90
57829;DHT22;43657;52.698;6.314;2024-01-07T02:25:29;0.30;99.90
57829;DHT22;43657;52.698;6.314;2024-01-07T02:27:56;0.30;99.90
57829;DHT22;43657;52.698;6.314;2024-01-07T02:30:26;0.30;99.90
57829;DHT22;43657;52.698;6.314;2024-01-07T02:33:08;0.30;99.90
57829;DHT22;43657;52.698;6.314;2024-01-07T02:35:34;0.30;99.90
57829;DHT22;43657;52.698;6.314;2024-01-07T02:38:00;0.30;99.90
57829;DHT22;43657;52.698;6.314;2024-01-07T02:40:26;0.30;99.90
57829;DHT22;43657;52.698;6.314;2024-01-07T02:42:54;0.30;99.90
57829;DHT22;43657;52.698;6.314;2024-01-07T02:45:24;0.30;99.90
57829;DHT22;43657;52.698;6.314;2024-01-07T02:47:56;0.30;99.90
57829;DHT22;43657;52.698;6.314;2024-01-07T02:50:36;0.40;99.90
57829;DHT22;43657;52.698;6.314;2024-01-07T02:53:08;0.30;99.90
57829;DHT22;43657;52.698;6.314;2024-01-07T02:55:36;0.30;99.90
57829;DHT22;43657;52.698;6.314;2024-01-07T02:58:06;0.30;99.90
57829;DHT22;43657;52.698;6.314;2024-01-07T03:00:36;0.30;99.90
57829;DHT22;43657;52.698;6.314;2024-01-07T03:03:03;0.20;99.90
57829;DHT22;43657;52.698;6.314;2024-01-07T03:05:34;0.30;99.90
57829;DHT22;43657;52.698;6.314;2024-01-07T03:08:01;0.30;99.90
57829;DHT22;43657;52.698;6.314;2024-01-07T03:10:28;0.30;99.90
57829;DHT22;43657;52.698;6.314;2024-01-07T03:12:58;0.30;99.90
57829;DHT22;43657;52.698;6.314;2024-01-07T03:15:30;0.30;99.90
57829;DHT22;43657;52.698;6.314;2024-01-07T03:18:07;0.30;99.90
57829;DHT22;43657;52.698;6.314;2024-01-07T03:20:37;0.30;99.90
57829;DHT22;43657;52.698;6.314;2024-01-07T03:23:04;0.20;99.90
57829;DHT22;43657;52.698;6.314;2024-01-07T03:25:41;0.20;99.90
57829;DHT22;43657;52.698;6.314;2024-01-07T03:28:13;0.20;99.90
57829;DHT22;43657;52.698;6.314;2024-01-07T03:30:51;0.20;99.90
57829;DHT22;43657;52.698;6.314;2024-01-07T03:33:25;0.20;99.90
57829;DHT22;43657;52.698;6.314;2024-01-07T03:35:52;0.20;99.90
57829;DHT22;43657;52.698;6.314;2024-01-07T03:38:21;0.10;99.90
57829;DHT22;43657;52.698;6.314;2024-01-07T03:40:59;0.20;99.90
57829;DHT22;43657;52.698;6.314;2024-01-07T03:43:49;0.20;99.90
57829;DHT22;43657;52.698;6.314;2024-01-07T03:46:24;0.20;99.90
57829;DHT22;43657;52.698;6.314;2024-01-07T03:48:58;0.20;99.90
57829;DHT22;43657;52.698;6.314;2024-01-07T03:51:31;0.20;99.90
57829;DHT22;43657;52.698;6.314;2024-01-07T03:54:10;0.20;99.90
57829;DHT22;43657;52.698;6.314;2024-01-07T03:56:42;0.20;99.90
57829;DHT22;43657;52.698;6.314;2024-01-07T03:59:09;0.20;99.90
57829;DHT22;43657;52.698;6.314;2024-01-07T04:01:36;0.20;99.90
57829;DHT22;43657;52.698;6.314;2024-01-07T04:04:02;0.20;99.90
57829;DHT22;43657;52.698;6.314;2024-01-07T04:06:32;0.20;99.90
57829;DHT22;43657;52.698;6.314;2024-01-07T04:09:03;0.20;99.90
57829;DHT22;43657;52.698;6.314;2024-01-07T04:11:50;0.10;99.90
57829;DHT22;43657;52.698;6.314;2024-01-07T04:14:18;0.10;99.90
57829;DHT22;43657;52.698;6.314;2024-01-07T04:16:44;0.10;99.90
57829;DHT22;43657;52.698;6.314;2024-01-07T04:19:12;0.10;99.90
57829;DHT22;43657;52.698;6.314;2024-01-07T04:21:47;0.10;99.90
57829;DHT22;43657;52.698;6.314;2024-01-07T04:24:14;0.10;99.90
57829;DHT22;43657;52.698;6.314;2024-01-07T04:26:40;0.10;99.90
57829;DHT22;43657;52.698;6.314;2024-01-07T04:29:09;0.10;99.90
57829;DHT22;43657;52.698;6.314;2024-01-07T04:31:44;0.20;99.90
57829;DHT22;43657;52.698;6.314;2024-01-07T04:34:11;0.10;99.90
57829;DHT22;43657;52.698;6.314;2024-01-07T04:36:41;0.10;99.90
57829;DHT22;43657;52.698;6.314;2024-01-07T04:39:13;0.10;99.90
57829;DHT22;43657;52.698;6.314;2024-01-07T04:41:42;0.10;99.90
57829;DHT22;43657;52.698;6.314;2024-01-07T04:44:27;0.00;99.90
57829;DHT22;43657;52.698;6.314;2024-01-07T04:47:32;0.10;99.90
57829;DHT22;43657;52.698;6.314;2024-01-07T04:50:04;0.00;99.90
57829;DHT22;43657;52.698;6.314;2024-01-07T04:52:34;0.10;99.90
57829;DHT22;43657;52.698;6.314;2024-01-07T04:55:07;0.10;99.90
57829;DHT22;43657;52.698;6.314;2024-01-07T04:57:44;0.10;99.90
57829;DHT22;43657;52.698;6.314;2024-01-07T05:00:19;0.10;99.90
57829;DHT22;43657;52.698;6.314;2024-01-07T05:03:06;0.00;99.90
57829;DHT22;43657;52.698;6.314;2024-01-07T05:05:38;0.10;99.90
57829;DHT22;43657;52.698;6.314;2024-01-07T05:08:11;0.00;99.90
57829;DHT22;43657;52.698;6.314;2024-01-07T05:10:49;0.10;99.90
57829;DHT22;43657;52.698;6.314;2024-01-07T05:13:19;0.10;99.90
57829;DHT22;43657;52.698;6.314;2024-01-07T05:15:45;0.10;99.90
57829;DHT22;43657;52.698;6.314;2024-01-07T05:18:22;0.10;99.90
57829;DHT22;43657;52.698;6.314;2024-01-07T05:20:52;0.10;99.90
57829;DHT22;43657;52.698;6.314;2024-01-07T05:23:19;0.00;99.90
57829;DHT22;43657;52.698;6.314;2024-01-07T05:25:51;0.00;99.90
57829;DHT22;43657;52.698;6.314;2024-01-07T05:28:21;0.00;99.90
57829;DHT22;43657;52.698;6.314;2024-01-07T05:30:49;-0.10;99.90
57829;DHT22;43657;52.698;6.314;2024-01-07T05:33:16;-0.10;99.90
57829;DHT22;43657;52.698;6.314;2024-01-07T05:35:47;-0.10;99.90
57829;DHT22;43657;52.698;6.314;2024-01-07T05:38:14;-0.10;99.90
57829;DHT22;43657;52.698;6.314;2024-01-07T05:40:46;-0.10;99.90
57829;DHT22;43657;52.698;6.314;2024-01-07T05:43:19;-0.20;99.90
57829;DHT22;43657;52.698;6.314;2024-01-07T05:45:49;-0.20;99.90
57829;DHT22;43657;52.698;6.314;2024-01-07T05:48:22;-0.20;99.90
57829;DHT22;43657;52.698;6.314;2024-01-07T05:50:52;-0.10;99.90
57829;DHT22;43657;52.698;6.314;2024-01-07T05:53:25;-0.20;99.90
57829;DHT22;43657;52.698;6.314;2024-01-07T05:56:00;-0.20;99.90
57829;DHT22;43657;52.698;6.314;2024-01-07T05:58:57;-0.20;99.90
57829;DHT22;43657;52.698;6.314;2024-01-07T06:01:27;-0.20;99.90
57829;DHT22;43657;52.698;6.314;2024-01-07T06:04:12;-0.20;99.90
57829;DHT22;43657;52.698;6.314;2024-01-07T06:06:50;-0.20;99.90
57829;DHT22;43657;52.698;6.314;2024-01-07T06:09:32;-0.20;99.90
57829;DHT22;43657;52.698;6.314;2024-01-07T06:12:09;-0.20;99.90
57829;DHT22;43657;52.698;6.314;2024-01-07T06:14:50;-0.20;99.90
57829;DHT22;43657;52.698;6.314;2024-01-07T06:17:34;-0.20;99.90
57829;DHT22;43657;52.698;6.314;2024-01-07T06:20:05;-0.30;99.90
57829;DHT22;43657;52.698;6.314;2024-01-07T06:22:37;-0.40;99.90
57829;DHT22;43657;52.698;6.314;2024-01-07T06:25:12;-0.30;99.90
57829;DHT22;43657;52.698;6.314;2024-01-07T06:27:56;-0.20;99.90
57829;DHT22;43657;52.698;6.314;2024-01-07T06:30:29;-0.30;99.90
57829;DHT22;43657;52.698;6.314;2024-01-07T06:36:08;-0.30;99.90
57829;DHT22;43657;52.698;6.314;2024-01-07T06:38:46;-0.40;99.90
57829;DHT22;43657;52.698;6.314;2024-01-07T06:41:16;-0.40;99.90
57829;DHT22;43657;52.698;6.314;2024-01-07T06:43:43;-0.40;99.90
57829;DHT22;43657;52.698;6.314;2024-01-07T06:46:19;-0.40;99.90
57829;DHT22;43657;52.698;6.314;2024-01-07T06:49:00;-0.40;99.90
57829;DHT22;43657;52.698;6.314;2024-01-07T06:51:47;-0.50;99.90
57829;DHT22;43657;52.698;6.314;2024-01-07T06:54:14;-0.40;99.90
57829;DHT22;43657;52.698;6.314;2024-01-07T06:56:43;-0.50;99.90
57829;DHT22;43657;52.698;6.314;2024-01-07T06:59:16;-0.50;99.90
57829;DHT22;43657;52.698;6.314;2024-01-07T07:01:45;-0.40;99.90
57829;DHT22;43657;52.698;6.314;2024-01-07T07:04:23;-0.40;99.90
57829;DHT22;43657;52.698;6.314;2024-01-07T07:06:52;-0.50;99.90
57829;DHT22;43657;52.698;6.314;2024-01-07T07:09:21;-0.40;99.90
57829;DHT22;43657;52.698;6.314;2024-01-07T07:11:50;-0.40;99.90
57829;DHT22;43657;52.698;6.314;2024-01-07T07:14:24;-0.40;99.90
57829;DHT22;43657;52.698;6.314;2024-01-07T07:16:53;-0.40;99.90
57829;DHT22;43657;52.698;6.314;2024-01-07T07:19:23;-0.40;99.90
57829;DHT22;43657;52.698;6.314;2024-01-07T07:21:56;-0.40;99.90
57829;DHT22;43657;52.698;6.314;2024-01-07T07:24:28;-0.40;99.90
57829;DHT22;43657;52.698;6.314;2024-01-07T07:27:03;-0.40;99.90
57829;DHT22;43657;52.698;6.314;2024-01-07T07:29:35;-0.30;99.90
57829;DHT22;43657;52.698;6.314;2024-01-07T07:32:02;-0.40;99.90
57829;DHT22;43657;52.698;6.314;2024-01-07T07:34:32;-0.30;99.90
57829;DHT22;43657;52.698;6.314;2024-01-07T07:37:00;-0.30;99.90
57829;DHT22;43657;52.698;6.314;2024-01-07T07:39:39;-0.30;99.90
57829;DHT22;43657;52.698;6.314;2024-01-07T07:42:26;-0.30;99.90
57829;DHT22;43657;52.698;6.314;2024-01-07T07:44:55;-0.30;99.90
57829;DHT22;43657;52.698;6.314;2024-01-07T07:47:30;-0.30;99.90
57829;DHT22;43657;52.698;6.314;2024-01-07T07:49:57;-0.20;99.90
57829;DHT22;43657;52.698;6.314;2024-01-07T07:52:31;-0.20;99.90
57829;DHT22;43657;52.698;6.314;2024-01-07T07:55:01;-0.30;99.90
57829;DHT22;43657;52.698;6.314;2024-01-07T07:57:30;-0.20;99.90
57829;DHT22;43657;52.698;6.314;2024-01-07T07:59:59;-0.30;99.90
57829;DHT22;43657;52.698;6.314;2024-01-07T08:02:30;-0.20;99.90
57829;DHT22;43657;52.698;6.314;2024-01-07T08:05:03;-0.30;99.90
57829;DHT22;43657;52.698;6.314;2024-01-07T08:07:30;-0.20;99.90
57829;DHT22;43657;52.698;6.314;2024-01-07T08:10:00;-0.20;99.90
57829;DHT22;43657;52.698;6.314;2024-01-07T08:12:32;-0.20;99.90
57829;DHT22;43657;52.698;6.314;2024-01-07T08:17:34;-0.20;99.90
57829;DHT22;43657;52.698;6.314;2024-01-07T08:20:25;-0.20;99.90
57829;DHT22;43657;52.698;6.314;2024-01-07T08:23:06;-0.10;99.90
57829;DHT22;43657;52.698;6.314;2024-01-07T08:26:17;-0.10;99.90
57829;DHT22;43657;52.698;6.314;2024-01-07T08:29:05;-0.20;99.90
57829;DHT22;43657;52.698;6.314;2024-01-07T08:32:13;-0.20;99.90
57829;DHT22;43657;52.698;6.314;2024-01-07T08:34:39;-0.30;99.90
57829;DHT22;43657;52.698;6.314;2024-01-07T08:37:05;-0.30;99.90
57829;DHT22;43657;52.698;6.314;2024-01-07T08:39:30;-0.30;99.90
57829;DHT22;43657;52.698;6.314;2024-01-07T08:41:56;-0.40;99.90
57829;DHT22;43657;52.698;6.314;2024-01-07T08:44:21;-0.40;99.90
57829;DHT22;43657;52.698;6.314;2024-01-07T08:46:47;-0.40;99.90
57829;DHT22;43657;52.698;6.314;2024-01-07T08:49:13;-0.40;99.90
57829;DHT22;43657;52.698;6.314;2024-01-07T08:51:39;-0.40;99.90
57829;DHT22;43657;52.698;6.314;2024-01-07T08:54:04;-0.40;99.90
57829;DHT22;43657;52.698;6.314;2024-01-07T08:56:30;-0.40;99.90
57829;DHT22;43657;52.698;6.314;2024-01-07T08:58:56;-0.40;99.90
57829;DHT22;43657;52.698;6.314;2024-01-07T09:01:21;-0.40;99.90
57829;DHT22;43657;52.698;6.314;2024-01-07T09:03:47;-0.40;99.90
57829;DHT22;43657;52.698;6.314;2024-01-07T09:06:15;-0.50;99.90
57829;DHT22;43657;52.698;6.314;2024-01-07T09:08:40;-0.50;99.90
57829;DHT22;43657;52.698;6.314;2024-01-07T09:11:07;-0.50;99.90
57829;DHT22;43657;52.698;6.314;2024-01-07T09:13:36;-0.50;99.90
57829;DHT22;43657;52.698;6.314;2024-01-07T09:16:02;-0.40;99.90
57829;DHT22;43657;52.698;6.314;2024-01-07T09:18:27;-0.50;99.90
57829;DHT22;43657;52.698;6.314;2024-01-07T09:20:53;-0.50;99.90
57829;DHT22;43657;52.698;6.314;2024-01-07T09:23:19;-0.50;99.90
57829;DHT22;43657;52.698;6.314;2024-01-07T09:25:44;-0.50;99.90
57829;DHT22;43657;52.698;6.314;2024-01-07T09:28:11;-0.50;99.90
57829;DHT22;43657;52.698;6.314;2024-01-07T09:30:38;-0.50;99.90
57829;DHT22;43657;52.698;6.314;2024-01-07T09:33:04;-0.50;99.90
57829;DHT22;43657;52.698;6.314;2024-01-07T09:35:29;-0.50;99.90
57829;DHT22;43657;52.698;6.314;2024-01-07T09:37:55;-0.50;99.90
57829;DHT22;43657;52.698;6.314;2024-01-07T09:40:20;-0.50;99.90
57829;DHT22;43657;52.698;6.314;2024-01-07T09:42:46;-0.50;99.90
57829;DHT22;43657;52.698;6.314;2024-01-07T09:45:13;-0.50;99.90
57829;DHT22;43657;52.698;6.314;2024-01-07T09:47:40;-0.50;99.90
57829;DHT22;43657;52.698;6.314;2024-01-07T09:50:10;-0.50;99.90
57829;DHT22;43657;52.698;6.314;2024-01-07T09:52:38;-0.40;99.90
57829;DHT22;43657;52.698;6.314;2024-01-07T09:55:04;-0.40;99.90
57829;DHT22;43657;52.698;6.314;2024-01-07T09:57:34;-0.40;99.90
57829;DHT22;43657;52.698;6.314;2024-01-07T10:00:00;-0.40;99.90
57829;DHT22;43657;52.698;6.314;2024-01-07T10:02:26;-0.40;99.90
57829;DHT22;43657;52.698;6.314;2024-01-07T10:04:52;-0.30;99.90
57829;DHT22;43657;52.698;6.314;2024-01-07T10:07:17;-0.20;99.90
57829;DHT22;43657;52.698;6.314;2024-01-07T10:09:43;-0.20;99.90
57829;DHT22;43657;52.698;6.314;2024-01-07T10:12:09;-0.20;99.90
57829;DHT22;43657;52.698;6.314;2024-01-07T10:14:35;-0.10;99.90
57829;DHT22;43657;52.698;6.314;2024-01-07T10:17:00;0.00;99.90
57829;DHT22;43657;52.698;6.314;2024-01-07T10:19:26;0.00;99.90
57829;DHT22;43657;52.698;6.314;2024-01-07T10:22:18;0.10;99.90
57829;DHT22;43657;52.698;6.314;2024-01-07T10:24:45;0.10;99.90
57829;DHT22;43657;52.698;6.314;2024-01-07T10:27:11;0.00;99.90
57829;DHT22;43657;52.698;6.314;2024-01-07T10:29:36;0.10;99.90
57829;DHT22;43657;52.698;6.314;2024-01-07T10:32:02;0.10;99.90
57829;DHT22;43657;52.698;6.314;2024-01-07T10:34:34;0.10;99.90
57829;DHT22;43657;52.698;6.314;2024-01-07T10:37:02;0.20;99.90
57829;DHT22;43657;52.698;6.314;2024-01-07T10:39:28;0.20;99.90
57829;DHT22;43657;52.698;6.314;2024-01-07T10:41:55;0.20;99.90
57829;DHT22;43657;52.698;6.314;2024-01-07T10:44:27;0.30;99.90
57829;DHT22;43657;52.698;6.314;2024-01-07T10:46:56;0.40;99.90
57829;DHT22;43657;52.698;6.314;2024-01-07T10:49:28;0.40;99.90
57829;DHT22;43657;52.698;6.314;2024-01-07T10:52:06;0.50;99.90
57829;DHT22;43657;52.698;6.314;2024-01-07T10:54:34;0.50;99.90
57829;DHT22;43657;52.698;6.314;2024-01-07T10:57:36;0.60;99.90
57829;DHT22;43657;52.698;6.314;2024-01-07T11:00:07;0.60;99.90
57829;DHT22;43657;52.698;6.314;2024-01-07T11:03:17;0.60;99.90
57829;DHT22;43657;52.698;6.314;2024-01-07T11:05:50;0.60;99.90
57829;DHT22;43657;52.698;6.314;2024-01-07T11:08:34;0.70;99.90
57829;DHT22;43657;52.698;6.314;2024-01-07T11:11:15;0.80;99.90
57829;DHT22;43657;52.698;6.314;2024-01-07T11:13:41;0.80;99.90
57829;DHT22;43657;52.698;6.314;2024-01-07T11:16:07;0.80;99.90
57829;DHT22;43657;52.698;6.314;2024-01-07T11:18:47;0.90;99.90
57829;DHT22;43657;52.698;6.314;2024-01-07T11:21:23;0.90;99.90
57829;DHT22;43657;52.698;6.314;2024-01-07T11:23:50;0.90;99.90
57829;DHT22;43657;52.698;6.314;2024-01-07T11:26:18;0.90;99.90
57829;DHT22;43657;52.698;6.314;2024-01-07T11:28:53;0.90;99.90
57829;DHT22;43657;52.698;6.314;2024-01-07T11:31:21;0.90;99.90
57829;DHT22;43657;52.698;6.314;2024-01-07T11:34:07;0.90;99.90
57829;DHT22;43657;52.698;6.314;2024-01-07T11:36:35;0.90;99.90
57829;DHT22;43657;52.698;6.314;2024-01-07T11:39:01;0.90;99.90
57829;DHT22;43657;52.698;6.314;2024-01-07T11:41:35;0.80;99.90
57829;DHT22;43657;52.698;6.314;2024-01-07T11:44:01;0.80;99.90
57829;DHT22;43657;52.698;6.314;2024-01-07T11:46:29;0.80;99.90
57829;DHT22;43657;52.698;6.314;2024-01-07T11:48:56;0.80;99.90
57829;DHT22;43657;52.698;6.314;2024-01-07T11:51:31;0.80;99.90
57829;DHT22;43657;52.698;6.314;2024-01-07T11:53:57;0.90;99.90
57829;DHT22;43657;52.698;6.314;2024-01-07T11:56:27;0.90;99.90
57829;DHT22;43657;52.698;6.314;2024-01-07T11:58:53;0.90;99.90
57829;DHT22;43657;52.698;6.314;2024-01-07T12:01:19;0.90;99.90
57829;DHT22;43657;52.698;6.314;2024-01-07T12:03:45;0.90;99.90
57829;DHT22;43657;52.698;6.314;2024-01-07T12:06:11;0.90;99.90
57829;DHT22;43657;52.698;6.314;2024-01-07T12:08:40;0.90;99.90
57829;DHT22;43657;52.698;6.314;2024-01-07T12:11:06;0.90;99.90
57829;DHT22;43657;52.698;6.314;2024-01-07T12:13:32;0.90;99.90
57829;DHT22;43657;52.698;6.314;2024-01-07T12:15:58;0.90;99.90
57829;DHT22;43657;52.698;6.314;2024-01-07T12:18:23;0.90;99.90
57829;DHT22;43657;52.698;6.314;2024-01-07T12:20:58;0.90;99.90
57829;DHT22;43657;52.698;6.314;2024-01-07T12:23:25;1.00;99.90
57829;DHT22;43657;52.698;6.314;2024-01-07T12:25:54;0.90;99.90
57829;DHT22;43657;52.698;6.314;2024-01-07T12:28:23;1.00;99.90
57829;DHT22;43657;52.698;6.314;2024-01-07T12:30:49;1.50;99.90
57829;DHT22;43657;52.698;6.314;2024-01-07T12:33:19;1.90;99.90
57829;DHT22;43657;52.698;6.314;2024-01-07T12:35:46;2.20;99.90
57829;DHT22;43657;52.698;6.314;2024-01-07T12:38:12;2.40;99.90
57829;DHT22;43657;52.698;6.314;2024-01-07T12:40:37;2.70;99.90
57829;DHT22;43657;52.698;6.314;2024-01-07T12:43:04;2.70;99.90
57829;DHT22;43657;52.698;6.314;2024-01-07T12:45:32;2.60;99.90
57829;DHT22;43657;52.698;6.314;2024-01-07T12:47:58;2.30;99.90
57829;DHT22;43657;52.698;6.314;2024-01-07T12:50:27;2.10;99.90
57829;DHT22;43657;52.698;6.314;2024-01-07T12:52:55;2.00;99.90
57829;DHT22;43657;52.698;6.314;2024-01-07T12:55:20;1.90;99.90
57829;DHT22;43657;52.698;6.314;2024-01-07T12:57:46;1.90;99.90
57829;DHT22;43657;52.698;6.314;2024-01-07T13:00:12;1.80;99.90
57829;DHT22;43657;52.698;6.314;2024-01-07T13:02:37;1.70;99.90
57829;DHT22;43657;52.698;6.314;2024-01-07T13:05:04;1.70;99.90
57829;DHT22;43657;52.698;6.314;2024-01-07T13:07:30;1.60;99.90
57829;DHT22;43657;52.698;6.314;2024-01-07T13:09:55;1.60;99.90
57829;DHT22;43657;52.698;6.314;2024-01-07T13:12:21;1.50;99.90
57829;DHT22;43657;52.698;6.314;2024-01-07T13:14:46;1.40;99.90
57829;DHT22;43657;52.698;6.314;2024-01-07T13:17:13;1.40;99.90
57829;DHT22;43657;52.698;6.314;2024-01-07T13:19:39;1.40;99.90
57829;DHT22;43657;52.698;6.314;2024-01-07T13:22:05;1.40;99.90
57829;DHT22;43657;52.698;6.314;2024-01-07T13:24:30;1.40;99.90
57829;DHT22;43657;52.698;6.314;2024-01-07T13:26:56;1.30;99.90
57829;DHT22;43657;52.698;6.314;2024-01-07T13:29:22;1.30;99.90
57829;DHT22;43657;52.698;6.314;2024-01-07T13:31:47;1.30;99.90
57829;DHT22;43657;52.698;6.314;2024-01-07T13:34:13;1.30;99.90
57829;DHT22;43657;52.698;6.314;2024-01-07T13:36:40;1.40;99.90
57829;DHT22;43657;52.698;6.314;2024-01-07T13:39:06;1.40;99.90
57829;DHT22;43657;52.698;6.314;2024-01-07T13:41:33;1.50;99.90
57829;DHT22;43657;52.698;6.314;2024-01-07T13:44:00;1.50;99.90
57829;DHT22;43657;52.698;6.314;2024-01-07T13:46:25;1.40;99.90
57829;DHT22;43657;52.698;6.314;2024-01-07T13:48:51;1.30;99.90
57829;DHT22;43657;52.698;6.314;2024-01-07T13:51:17;1.20;99.90
57829;DHT22;43657;52.698;6.314;2024-01-07T13:53:43;1.00;99.90
57829;DHT22;43657;52.698;6.314;2024-01-07T13:56:11;0.90;99.90
57829;DHT22;43657;52.698;6.314;2024-01-07T13:58:36;0.90;99.90
57829;DHT22;43657;52.698;6.314;2024-01-07T14:01:02;0.90;99.90
57829;DHT22;43657;52.698;6.314;2024-01-07T14:03:28;1.00;99.90
57829;DHT22;43657;52.698;6.314;2024-01-07T14:05:55;1.00;99.90
57829;DHT22;43657;52.698;6.314;2024-01-07T14:08:21;0.90;99.90
57829;DHT22;43657;52.698;6.314;2024-01-07T14:10:47;0.90;99.90
57829;DHT22;43657;52.698;6.314;2024-01-07T14:13:13;0.90;99.90
57829;DHT22;43657;52.698;6.314;2024-01-07T14:15:39;0.90;99.90
57829;DHT22;43657;52.698;6.314;2024-01-07T14:18:05;0.90;99.90
57829;DHT22;43657;52.698;6.314;2024-01-07T14:20:30;0.90;99.90
57829;DHT22;43657;52.698;6.314;2024-01-07T14:22:56;0.80;99.90
57829;DHT22;43657;52.698;6.314;2024-01-07T14:25:22;0.80;99.90
57829;DHT22;43657;52.698;6.314;2024-01-07T14:27:47;0.80;99.90
57829;DHT22;43657;52.698;6.314;2024-01-07T14:30:13;0.80;99.90
57829;DHT22;43657;52.698;6.314;2024-01-07T14:32:42;0.80;99.90
57829;DHT22;43657;52.698;6.314;2024-01-07T14:35:08;0.80;99.90
57829;DHT22;43657;52.698;6.314;2024-01-07T14:37:33;0.70;99.90
57829;DHT22;43657;52.698;6.314;2024-01-07T14:39:59;0.70;99.90
57829;DHT22;43657;52.698;6.314;2024-01-07T14:42:24;0.60;99.90
57829;DHT22;43657;52.698;6.314;2024-01-07T14:44:50;0.60;99.90
57829;DHT22;43657;52.698;6.314;2024-01-07T14:47:16;0.50;99.90
57829;DHT22;43657;52.698;6.314;2024-01-07T14:49:41;0.40;99.90
57829;DHT22;43657;52.698;6.314;2024-01-07T14:52:07;0.40;99.90
57829;DHT22;43657;52.698;6.314;2024-01-07T14:54:33;0.30;99.90
57829;DHT22;43657;52.698;6.314;2024-01-07T14:57:00;0.30;99.90
57829;DHT22;43657;52.698;6.314;2024-01-07T14:59:26;0.20;99.90
57829;DHT22;43657;52.698;6.314;2024-01-07T15:01:52;0.20;99.90
57829;DHT22;43657;52.698;6.314;2024-01-07T15:04:19;0.20;99.90
57829;DHT22;43657;52.698;6.314;2024-01-07T15:06:44;0.20;99.90
57829;DHT22;43657;52.698;6.314;2024-01-07T15:09:11;0.20;99.90
57829;DHT22;43657;52.698;6.314;2024-01-07T15:11:39;0.20;99.90
57829;DHT22;43657;52.698;6.314;2024-01-07T15:14:08;0.10;99.90
57829;DHT22;43657;52.698;6.314;2024-01-07T15:16:35;0.10;99.90
57829;DHT22;43657;52.698;6.314;2024-01-07T15:19:01;0.10;99.90
57829;DHT22;43657;52.698;6.314;2024-01-07T15:21:27;0.00;99.90
57829;DHT22;43657;52.698;6.314;2024-01-07T15:23:52;0.00;99.90
57829;DHT22;43657;52.698;6.314;2024-01-07T15:26:18;0.00;99.90
57829;DHT22;43657;52.698;6.314;2024-01-07T15:28:43;-0.10;99.90
57829;DHT22;43657;52.698;6.314;2024-01-07T15:31:09;-0.10;99.90
57829;DHT22;43657;52.698;6.314;2024-01-07T15:33:34;-0.20;99.90
57829;DHT22;43657;52.698;6.314;2024-01-07T15:36:03;-0.20;99.90
57829;DHT22;43657;52.698;6.314;2024-01-07T15:38:28;-0.30;99.90
57829;DHT22;43657;52.698;6.314;2024-01-07T15:40:54;-0.30;99.90
57829;DHT22;43657;52.698;6.314;2024-01-07T15:43:20;-0.40;99.90
57829;DHT22;43657;52.698;6.314;2024-01-07T15:45:45;-0.40;99.90
57829;DHT22;43657;52.698;6.314;2024-01-07T15:48:11;-0.40;99.90
57829;DHT22;43657;52.698;6.314;2024-01-07T15:50:36;-0.40;99.90
57829;DHT22;43657;52.698;6.314;2024-01-07T15:53:02;-0.50;99.90
57829;DHT22;43657;52.698;6.314;2024-01-07T15:55:28;-0.50;99.90
57829;DHT22;43657;52.698;6.314;2024-01-07T15:57:53;-0.50;99.90
57829;DHT22;43657;52.698;6.314;2024-01-07T16:00:19;-0.50;99.90
57829;DHT22;43657;52.698;6.314;2024-01-07T16:02:46;-0.50;99.90